Portada
METAR-TAF:

METAR-TAF

Aeroports :

Teheran, Iran

latitud: 35-41N, longitud: 051-21E, altitud: 1204 m

Observació

L'informe es va fer fa 25 minuts, a les 16:00 UTC
Vent 6 kt del Nord/Nord-Oest
Temperatura 12°C
Humitat 19%
Pressió 1021 hPa
Visibilitat 10 km o més
sense núvols per sota de 1500 mi sense presència de cumulonimbus.

METAR: OIII 131600Z 33006KT CAVOK 12/M11 Q1021 A3015 NOSIG

Hora: 19:55 (16:25 UTC)

Pronòstic

L'informe es va fer fa 4 hores i 55 minuts, a les 11:30 UTC
Pronòstic vàlid del 13 a les 12 UTC al 14 a les 18 UTC
Vent 8 kt del Oest/Nord-Oest
Visibilitat: 7000 m

TAF: OIII 131130Z 1312/1418 30004MPS 7000 NSC

Observacions i pronòstics meteorològics de més de 4000 aeroports (METAR i TAF).

Les estacions disponibles són els punts grocs i vermells al mapa.

Posi el ratolí al punt desitjat per veure el nom de l'estació.

Feu clic per veure les observacions i els pronòstics meteorològics.

Per canviar el mapa: feu clic els botons verds amb una creu de color negre per apropar; al botó verd amb un guió per allunyar la imatge; o en les fletxes verdes per a mapes adjacents.


METAR-TAF: